Saturday, August 24, 2019, 3:50 AM EDT
Back to Local

KMTP, Montauk Airport

Location: Montauk, NY, United States Lat: 41.067
Local Time: 3:50 AM EDT ( 7:50 GMT) Lon: -71.917
Time Zone: US/Eastern Elev: 6 ft

Show me the last for .
Show Coded

Time T Td Feel RH Dir Speed Gust Alt SLP Vis Weather Sky Remarks
2019-08-24 02:54 67 54 - 63 20° 9 21 30.06 30.06 0 None
2019-08-24 01:54 68 56 - 65 30° 9 - 30.05 30.05 0 6-hr Min Temp (2am): 68.0°F
6-hr Max Temp (2am): 71.1°F
2019-08-24 00:54 68 58 - 70 20° 8 - 30.05 30.05 0 24-hr Min Temp (1am): 66.9°F
24-hr Max Temp (1am): 73.0°F
2019-08-23 23:54 69 60 - 73 10° 8 - 30.04 30.04 0 None
2019-08-23 22:54 70 62 - 76 330° 6 - 30.02 30.02 0 None
2019-08-23 21:54 70 64 - 81 320° 3 - 30.01 30.00 0 None
2019-08-23 20:54 71 62 76 73 - Calm - 30.00 29.99 0 None
2019-08-23 19:54 71 63 76 75 310° 5 - 29.99 29.99 0 6-hr Min Temp (8pm): 69.1°F
6-hr Max Temp (8pm): 73.0°F
2019-08-23 18:54 71 63 76 75 310° 5 - 29.99 29.98 0 None
2019-08-23 17:54 72 64 76 76 300° 5 - 29.98 29.97 0 None
2019-08-23 16:54 72 64 76 76 - Calm - 29.98 29.98 0 None
2019-08-23 15:54 70 61 - 73 290° 7 - 29.99 29.99 0 None
2019-08-23 14:54 71 60 76 68 310° 6 - 29.98 29.98 0 None
2019-08-23 13:54 69 59 - 70 320° 6 - 29.99 29.98 0 6-hr Min Temp (2pm): 66.9°F
6-hr Max Temp (2pm): 69.1°F
2019-08-23 12:54 68 60 - 75 350° 5 - 29.98 29.98 0 None
2019-08-23 11:54 68 58 - 70 - Calm - 29.99 29.99 0 None
2019-08-23 10:54 67 59 - 75 340° 3 - 30.01 30.01 0 None
2019-08-23 09:54 68 59 - 72 350° 6 - 30.01 30.01 0 None
2019-08-23 08:54 68 59 - 72 350° 7 - 30.00 30.00 0 None
2019-08-23 07:54 68 63 - 83 340° 3 - 29.99 29.99 0 1-hr Precip Total: 0.01"
6-hr Precip Total (8am): 0.01"
24-hr Precip Total (8am): 0.17"
6-hr Min Temp (8am): 68.0°F
6-hr Max Temp (8am): 73.0°F
2019-08-23 06:54 70 62 - 76 350° 6 - 29.96 29.96 0 None
2019-08-23 05:54 70 63 - 78 10° 6 - 29.94 29.94 0 None
2019-08-23 04:54 71 65 76 81 340° 9 - 29.92 29.92 0 None
2019-08-23 03:54 72 71 77 97 - Calm - 29.90 29.90 0 None

Support USWX by starting your Amazon purchase here.